Time;durP1;ratioP1;P1;durP2;ratioP2;P2;SDS_P1;SDS_P2;PMS_P1;PMS_P2;Temp;Humidity;BMP_temperature;BMP_pressure;BME280_temperature;BME280_humidity;BME280_pressure;Samples;Min_cycle;Max_cycle;Signal;HPM_P1;HPM_P2
2022/11/04 00:01:53;;;;;;;11.77;5.80;;;9.20;99.90;;;;;;4995915;28;20034;-81
2022/11/04 00:04:21;;;;;;;10.40;5.93;;;9.20;99.90;;;;;;4984562;28;20448;-81
2022/11/04 00:06:47;;;;;;;11.52;6.25;;;9.10;99.90;;;;;;4989676;28;20507;-82
2022/11/04 00:09:23;;;;;;;12.15;6.15;;;9.20;99.90;;;;;;4988254;28;20166;-82
2022/11/04 00:14:35;;;;;;;9.65;5.93;;;9.30;99.90;;;;;;5004933;28;20495;-83
2022/11/04 00:17:21;;;;;;;9.35;6.35;;;9.50;99.90;;;;;;4988003;28;20056;-82
2022/11/04 00:33:24;;;;;;;7.47;5.60;;;9.50;99.90;;;;;;5008620;28;20125;-82
2022/11/04 00:33:49;;;;;;;9.50;5.90;;;9.50;99.90;;;;;;5007551;28;20091;-82
2022/11/04 00:36:15;;;;;;;9.10;5.90;;;9.40;99.90;;;;;;4977877;28;20033;-82
2022/11/04 00:38:41;;;;;;;10.77;6.40;;;9.50;99.90;;;;;;4989933;28;20450;-83
2022/11/04 00:41:24;;;;;;;9.07;6.22;;;9.50;99.90;;;;;;4980094;28;20038;-83
2022/11/04 00:43:55;;;;;;;14.75;7.25;;;9.50;99.90;;;;;;5015694;28;20034;-84
2022/11/04 00:46:21;;;;;;;10.90;6.18;;;9.50;99.90;;;;;;4973241;28;20502;-81
2022/11/04 00:48:48;;;;;;;11.23;6.95;;;9.50;99.90;;;;;;4969637;28;20130;-82
2022/11/04 00:51:13;;;;;;;10.02;6.60;;;9.50;99.90;;;;;;4983413;28;20030;-83
2022/11/04 00:53:39;;;;;;;7.65;6.18;;;9.50;99.90;;;;;;4988168;28;20038;-83
2022/11/04 00:56:05;;;;;;;10.95;6.15;;;9.40;99.90;;;;;;4988514;28;20411;-82
2022/11/04 00:58:31;;;;;;;9.88;6.60;;;9.40;99.90;;;;;;4972300;28;20345;-82
2022/11/04 01:00:57;;;;;;;10.48;7.22;;;9.40;99.90;;;;;;4994776;28;20050;-82
2022/11/04 01:03:22;;;;;;;7.93;6.07;;;9.30;99.90;;;;;;5024054;28;20026;-83
2022/11/04 01:05:48;;;;;;;10.60;6.13;;;9.30;99.90;;;;;;4978232;28;20308;-83
2022/11/04 01:08:14;;;;;;;10.50;6.45;;;9.20;99.90;;;;;;4971979;28;20100;-83
2022/11/04 01:10:43;;;;;;;8.77;6.63;;;9.20;99.90;;;;;;4941796;28;20502;-84
2022/11/04 01:13:10;;;;;;;9.55;6.20;;;9.20;99.90;;;;;;4956846;28;20046;-83
2022/11/04 01:15:36;;;;;;;9.35;6.38;;;9.20;99.90;;;;;;4975745;28;20538;-83
2022/11/04 01:18:03;;;;;;;13.18;6.45;;;9.20;99.90;;;;;;5008072;28;20065;-84
2022/11/04 01:20:28;;;;;;;10.50;7.70;;;9.20;99.90;;;;;;5021014;28;20136;-83
2022/11/04 01:22:54;;;;;;;9.82;6.72;;;9.20;99.90;;;;;;4988061;28;20050;-83
2022/11/04 01:25:20;;;;;;;11.57;7.05;;;9.30;99.90;;;;;;4989449;28;20038;-83
2022/11/04 01:27:46;;;;;;;10.85;7.88;;;9.30;99.90;;;;;;4991317;28;20493;-83
2022/11/04 01:30:12;;;;;;;12.43;7.85;;;9.30;99.90;;;;;;4958558;28;20125;-82
2022/11/04 01:32:37;;;;;;;11.80;7.72;;;9.30;99.90;;;;;;4987657;28;20035;-82
2022/11/04 01:35:04;;;;;;;10.20;6.63;;;9.40;99.90;;;;;;4970789;28;20076;-84
2022/11/04 01:37:30;;;;;;;13.10;7.10;;;9.40;99.90;;;;;;4987709;28;20041;-84
2022/11/04 01:39:56;;;;;;;13.77;7.00;;;9.30;99.90;;;;;;4971317;28;20027;-83
2022/11/04 01:42:22;;;;;;;9.73;7.50;;;9.40;99.90;;;;;;4971047;28;20407;-83
2022/11/04 01:44:50;;;;;;;10.98;7.05;;;9.40;99.90;;;;;;4991659;28;20054;-83
2022/11/04 01:47:18;;;;;;;12.32;6.93;;;9.40;99.90;;;;;;4988858;28;20274;-84
2022/11/04 01:49:49;;;;;;;11.90;7.80;;;9.40;99.90;;;;;;5004162;28;20412;-84
2022/11/04 01:52:21;;;;;;;12.32;7.50;;;9.40;99.90;;;;;;4973582;28;20121;-85
2022/11/04 01:54:48;;;;;;;14.45;7.70;;;9.40;99.90;;;;;;5004210;28;20030;-84
2022/11/04 01:57:18;;;;;;;11.55;7.07;;;9.40;99.90;;;;;;5004727;28;20046;-85
2022/11/04 01:59:45;;;;;;;10.65;6.78;;;9.40;99.90;;;;;;4952600;28;20030;-84
2022/11/04 02:02:11;;;;;;;14.20;7.38;;;9.50;99.90;;;;;;4958962;28;20073;-84
2022/11/04 02:04:38;;;;;;;12.52;7.10;;;9.40;99.90;;;;;;4955641;28;20120;-84
2022/11/04 02:07:08;;;;;;;12.15;7.78;;;9.40;99.90;;;;;;4982680;28;20089;-83
2022/11/04 02:09:36;;;;;;;11.23;7.28;;;9.40;99.90;;;;;;4970874;28;20034;-85
2022/11/04 02:14:48;;;;;;;10.43;7.57;;;9.50;99.90;;;;;;4971941;28;20070;-84
2022/11/04 02:17:17;;;;;;;10.77;6.85;;;9.40;99.90;;;;;;4987872;28;20034;-84
2022/11/04 02:20:12;;;;;;;11.48;6.97;;;9.50;99.90;;;;;;4989008;28;20038;-84
2022/11/04 02:22:44;;;;;;;10.88;6.68;;;9.50;99.90;;;;;;4955500;28;20038;-84
2022/11/04 02:25:47;;;;;;;13.40;7.70;;;9.50;99.90;;;;;;4971757;28;20046;-84
2022/11/04 02:28:25;;;;;;;10.77;7.43;;;9.50;99.90;;;;;;4955373;28;20085;-84
2022/11/04 02:31:15;;;;;;;10.93;7.53;;;9.50;99.90;;;;;;4965058;28;20026;-84
2022/11/04 02:33:55;;;;;;;12.32;8.32;;;9.50;99.90;;;;;;4981823;28;20049;-85
2022/11/04 02:36:29;;;;;;;12.13;7.93;;;9.50;99.90;;;;;;4992875;28;20026;-83
2022/11/04 02:39:07;;;;;;;11.88;7.85;;;9.50;99.90;;;;;;4987649;28;20483;-84
2022/11/04 02:41:40;;;;;;;11.95;8.63;;;9.50;99.90;;;;;;4972491;28;20026;-84
2022/11/04 02:44:20;;;;;;;13.18;8.45;;;9.50;99.90;;;;;;4973839;28;20730;-84
2022/11/04 02:46:53;;;;;;;11.70;8.45;;;9.50;99.90;;;;;;5003139;28;20088;-85
2022/11/04 02:49:22;;;;;;;14.30;9.20;;;9.50;99.90;;;;;;4997867;28;20030;-85
2022/11/04 02:52:06;;;;;;;10.25;8.23;;;9.50;99.90;;;;;;4990488;28;20033;-84
2022/11/04 02:55:00;;;;;;;13.30;8.15;;;9.50;99.90;;;;;;4986976;28;20042;-84
2022/11/04 02:57:30;;;;;;;12.48;8.05;;;9.50;99.90;;;;;;4977515;28;20053;-84
2022/11/04 03:00:06;;;;;;;14.52;9.00;;;9.50;99.90;;;;;;4991277;28;20034;-83
2022/11/04 03:03:08;;;;;;;12.38;8.82;;;9.50;99.90;;;;;;4985791;28;20034;-84
2022/11/04 03:05:38;;;;;;;12.27;8.95;;;9.50;99.90;;;;;;4969267;28;20651;-84
2022/11/04 03:08:15;;;;;;;10.82;8.55;;;9.50;99.90;;;;;;4989970;28;20757;-83
2022/11/04 03:10:45;;;;;;;14.15;8.50;;;9.50;99.90;;;;;;4995151;28;20030;-84
2022/11/04 03:13:19;;;;;;;10.95;8.88;;;9.50;99.90;;;;;;5009366;28;20053;-84
2022/11/04 03:15:52;;;;;;;12.65;8.75;;;9.50;99.90;;;;;;4988550;28;20037;-84
2022/11/04 03:18:36;;;;;;;13.75;8.75;;;9.60;99.90;;;;;;4973636;28;20038;-83
2022/11/04 03:21:08;;;;;;;11.35;7.93;;;9.50;99.90;;;;;;4968316;28;20026;-84
2022/11/04 03:23:34;;;;;;;12.23;8.48;;;9.60;99.90;;;;;;4956670;28;20615;-84
2022/11/04 03:26:38;;;;;;;12.95;8.40;;;9.60;99.90;;;;;;4989452;28;20361;-83
2022/11/04 03:29:20;;;;;;;10.70;8.55;;;9.50;99.90;;;;;;4990040;28;20084;-84
2022/11/04 03:32:37;;;;;;;10.73;7.72;;;9.60;99.90;;;;;;4991141;28;20044;-84
2022/11/04 03:35:03;;;;;;;10.70;8.20;;;9.60;99.90;;;;;;4976886;28;20496;-84
2022/11/04 03:37:29;;;;;;;10.40;8.23;;;9.60;99.90;;;;;;4973453;28;20450;-84
2022/11/04 03:39:55;;;;;;;12.10;8.07;;;9.60;99.90;;;;;;4951080;28;20042;-85
2022/11/04 03:42:22;;;;;;;10.00;7.68;;;9.60;99.90;;;;;;4973852;28;20035;-84
2022/11/04 03:44:53;;;;;;;8.95;7.32;;;9.60;99.90;;;;;;4953800;28;20039;-84
2022/11/04 03:47:24;;;;;;;12.20;7.45;;;9.50;99.90;;;;;;4988539;28;20130;-84
2022/11/04 03:49:56;;;;;;;9.30;7.03;;;9.50;99.90;;;;;;4988048;28;20066;-83
2022/11/04 03:52:22;;;;;;;8.52;6.57;;;9.50;99.90;;;;;;4998213;28;20033;-83
2022/11/04 03:54:48;;;;;;;9.52;6.50;;;9.50;99.90;;;;;;4959845;28;20030;-84
2022/11/04 03:57:23;;;;;;;9.73;6.53;;;9.50;99.90;;;;;;4973669;28;20038;-84
2022/11/04 04:00:05;;;;;;;7.78;5.57;;;9.50;99.90;;;;;;4990107;28;20045;-84
2022/11/04 04:02:57;;;;;;;9.65;5.88;;;9.50;99.90;;;;;;4988279;28;20045;-84
2022/11/04 04:05:27;;;;;;;8.13;6.05;;;9.50;99.90;;;;;;5001031;28;20049;-84
2022/11/04 04:08:18;;;;;;;6.82;5.35;;;9.50;99.90;;;;;;4988906;28;20038;-84
2022/11/04 04:11:11;;;;;;;7.07;5.75;;;9.50;99.90;;;;;;4967319;28;20108;-84
2022/11/04 04:14:00;;;;;;;8.43;5.60;;;9.40;99.90;;;;;;5003583;28;20038;-84
2022/11/04 04:16:36;;;;;;;6.10;5.03;;;9.50;99.90;;;;;;5015358;28;20038;-84
2022/11/04 04:19:07;;;;;;;;;;;9.40;99.90;;;;;;5009313;28;20056;-84
2022/11/04 04:21:43;;;;;;;6.85;5.35;;;9.40;99.90;;;;;;5004786;28;19963;-84
2022/11/04 04:29:44;;;;;;;6.85;4.90;;;9.40;99.90;;;;;;4969372;28;20043;-84
2022/11/04 04:32:10;;;;;;;6.30;4.72;;;9.40;99.90;;;;;;4984921;28;20050;-84
2022/11/04 04:34:36;;;;;;;6.82;5.40;;;9.40;99.90;;;;;;5015523;28;20038;-84
2022/11/04 04:37:22;;;;;;;5.53;4.45;;;9.40;99.90;;;;;;4984224;28;20129;-83
2022/11/04 04:45:35;;;;;;;5.13;3.85;;;9.40;99.90;;;;;;4960593;28;20034;-82
2022/11/04 04:48:01;;;;;;;5.47;4.03;;;9.40;99.90;;;;;;4972184;28;20281;-82
2022/11/04 04:50:43;;;;;;;4.72;3.90;;;9.40;99.90;;;;;;4974245;28;20032;-82
2022/11/04 04:53:10;;;;;;;5.55;3.55;;;9.40;99.90;;;;;;5005266;28;20030;-83
2022/11/04 04:55:36;;;;;;;6.28;5.43;;;9.40;99.90;;;;;;4971818;28;20463;-83
2022/11/04 04:58:01;;;;;;;5.90;3.22;;;9.40;99.90;;;;;;4988084;28;20092;-83
2022/11/04 05:00:28;;;;;;;4.43;3.75;;;9.40;99.90;;;;;;4942019;28;20495;-83
2022/11/04 05:02:54;;;;;;;4.38;3.70;;;9.40;99.90;;;;;;4974981;28;20068;-83
2022/11/04 05:05:20;;;;;;;4.78;3.40;;;9.40;99.90;;;;;;5006761;28;20029;-83
2022/11/04 05:07:47;;;;;;;3.78;3.38;;;9.30;99.90;;;;;;4960005;28;20057;-82
2022/11/04 05:10:14;;;;;;;4.05;3.63;;;9.30;99.90;;;;;;4987723;28;20026;-83
2022/11/04 05:15:26;;;;;;;4.78;3.22;;;9.30;99.90;;;;;;4990514;28;20085;-82
2022/11/04 05:18:00;;;;;;;3.30;3.00;;;9.30;99.90;;;;;;4988246;28;20038;-85
2022/11/04 05:20:27;;;;;;;5.75;3.72;;;9.30;99.90;;;;;;4974195;28;20042;-83
2022/11/04 05:22:54;;;;;;;3.50;3.03;;;9.30;99.90;;;;;;5001200;28;20049;-83
2022/11/04 05:25:20;;;;;;;3.50;2.97;;;9.20;99.90;;;;;;4973161;28;20046;-83
2022/11/04 05:27:45;;;;;;;3.53;3.17;;;9.20;99.90;;;;;;4989859;28;20483;-83
2022/11/04 05:30:11;;;;;;;3.70;2.85;;;9.20;99.90;;;;;;4989138;28;20042;-83
2022/11/04 05:32:37;;;;;;;3.20;2.92;;;9.20;99.90;;;;;;4992807;28;20506;-83
2022/11/04 05:35:03;;;;;;;3.65;2.83;;;9.20;99.90;;;;;;4985848;28;20038;-83
2022/11/04 05:37:29;;;;;;;3.72;2.97;;;9.20;99.90;;;;;;4972004;28;20074;-83
2022/11/04 05:39:54;;;;;;;4.15;2.80;;;9.20;99.90;;;;;;4987611;28;20046;-83
2022/11/04 05:42:20;;;;;;;3.22;2.80;;;9.20;99.90;;;;;;4984743;28;20047;-83
2022/11/04 05:44:46;;;;;;;3.45;2.75;;;9.20;99.90;;;;;;4952151;28;20093;-83
2022/11/04 05:47:11;;;;;;;4.80;2.92;;;9.20;99.90;;;;;;5002486;28;20045;-84
2022/11/04 05:49:37;;;;;;;3.13;2.83;;;9.10;99.90;;;;;;4966368;28;20034;-82
2022/11/04 05:52:04;;;;;;;6.20;2.92;;;9.10;99.90;;;;;;5000707;28;20694;-82
2022/11/04 05:54:29;;;;;;;3.40;2.75;;;9.20;99.90;;;;;;4988677;28;20129;-82
2022/11/04 05:56:55;;;;;;;3.33;3.03;;;9.10;99.90;;;;;;4988391;28;20128;-85
2022/11/04 05:59:21;;;;;;;4.32;2.97;;;9.10;99.90;;;;;;4985795;28;20026;-83
2022/11/04 06:01:48;;;;;;;3.38;2.75;;;9.20;99.90;;;;;;5026954;28;20440;-84
2022/11/04 06:04:18;;;;;;;2.95;2.67;;;9.10;99.90;;;;;;4978628;28;20038;-84
2022/11/04 06:06:44;;;;;;;3.53;3.22;;;9.10;99.90;;;;;;5014187;28;20045;-82
2022/11/04 06:09:10;;;;;;;4.28;3.22;;;9.00;99.90;;;;;;4988795;28;20022;-83
2022/11/04 06:11:37;;;;;;;3.58;2.83;;;9.10;99.90;;;;;;4979940;28;20031;-84
2022/11/04 06:14:03;;;;;;;3.63;2.80;;;9.20;99.90;;;;;;4974364;28;20658;-84
2022/11/04 06:16:29;;;;;;;3.17;2.80;;;9.20;99.90;;;;;;4985630;28;20065;-83
2022/11/04 06:18:54;;;;;;;5.40;3.55;;;9.20;99.90;;;;;;4994583;28;20033;-83
2022/11/04 06:21:31;;;;;;;3.65;3.03;;;9.20;99.90;;;;;;4974254;28;20094;-82
2022/11/04 06:23:57;;;;;;;3.63;3.33;;;9.10;99.90;;;;;;4972629;28;20031;-84
2022/11/04 06:26:25;;;;;;;4.05;3.65;;;9.10;99.90;;;;;;4984435;28;20044;-83
2022/11/04 06:28:51;;;;;;;3.58;3.28;;;9.10;99.90;;;;;;4999940;28;20035;-83
2022/11/04 06:31:17;;;;;;;4.28;3.00;;;9.00;99.90;;;;;;4990927;28;20125;-83
2022/11/04 06:33:44;;;;;;;2.63;2.40;;;9.00;99.90;;;;;;4974197;28;20034;-84
2022/11/04 06:36:12;;;;;;;2.72;2.53;;;9.10;99.90;;;;;;5015167;28;20030;-83
2022/11/04 06:38:39;;;;;;;4.45;3.20;;;9.10;99.90;;;;;;4991384;28;20348;-82
2022/11/04 06:41:07;;;;;;;2.83;2.63;;;9.10;99.90;;;;;;4997977;28;20060;-83
2022/11/04 06:43:33;;;;;;;3.55;2.50;;;9.10;99.90;;;;;;5025811;28;20072;-84
2022/11/04 06:46:01;;;;;;;6.15;2.78;;;9.10;99.90;;;;;;4990606;28;20022;-83
2022/11/04 06:48:31;;;;;;;3.63;3.00;;;9.10;99.90;;;;;;4974709;28;20483;-83
2022/11/04 06:50:58;;;;;;;3.05;2.70;;;9.00;99.90;;;;;;4967893;28;20038;-83
2022/11/04 06:53:24;;;;;;;4.80;3.17;;;9.10;99.90;;;;;;4974162;28;20026;-82
2022/11/04 06:55:51;;;;;;;2.80;2.60;;;9.10;99.90;;;;;;4990416;28;20053;-82
2022/11/04 06:58:18;;;;;;;3.30;2.90;;;9.10;99.90;;;;;;5010468;28;20054;-82
2022/11/04 07:00:48;;;;;;;3.03;2.63;;;9.10;99.90;;;;;;4994300;28;20038;-83
2022/11/04 07:03:14;;;;;;;3.45;3.15;;;9.10;99.90;;;;;;5005134;28;20081;-82
2022/11/04 07:05:40;;;;;;;2.50;2.30;;;9.10;99.90;;;;;;4992510;28;20037;-83
2022/11/04 07:08:05;;;;;;;3.13;2.47;;;9.10;99.90;;;;;;4974121;28;20045;-82
2022/11/04 07:10:32;;;;;;;3.05;2.70;;;9.10;99.90;;;;;;4958197;28;20475;-82
2022/11/04 07:12:58;;;;;;;3.60;3.13;;;9.00;99.90;;;;;;4987377;28;20704;-82
2022/11/04 07:15:24;;;;;;;2.75;2.53;;;9.00;99.90;;;;;;4991565;28;20041;-82
2022/11/04 07:17:49;;;;;;;2.83;2.60;;;9.00;99.90;;;;;;4973874;28;20066;-83
2022/11/04 07:20:15;;;;;;;4.10;2.72;;;9.00;99.90;;;;;;4974159;28;20044;-82
2022/11/04 07:22:41;;;;;;;3.13;2.80;;;9.00;99.90;;;;;;4992948;28;20038;-83
2022/11/04 07:25:08;;;;;;;3.90;2.85;;;9.00;99.90;;;;;;4943876;28;20034;-82
2022/11/04 07:27:33;;;;;;;2.92;2.72;;;9.00;99.90;;;;;;4989861;28;20769;-83
2022/11/04 07:29:59;;;;;;;4.05;2.63;;;9.00;99.90;;;;;;4988865;28;20031;-84
2022/11/04 07:32:25;;;;;;;2.45;2.10;;;9.00;99.90;;;;;;4976291;28;20027;-82
2022/11/04 07:34:51;;;;;;;2.45;2.10;;;9.00;99.90;;;;;;4983904;28;20019;-82
2022/11/04 07:37:16;;;;;;;1.90;1.80;;;9.00;99.90;;;;;;4983139;28;20035;-84
2022/11/04 07:39:42;;;;;;;2.22;2.03;;;9.00;99.90;;;;;;4989547;28;20045;-82
2022/11/04 07:42:08;;;;;;;2.10;1.88;;;9.00;99.90;;;;;;4988855;28;20061;-83
2022/11/04 07:44:34;;;;;;;2.15;1.80;;;9.00;99.90;;;;;;4969667;28;20050;-83
2022/11/04 07:47:00;;;;;;;1.88;1.70;;;9.00;99.90;;;;;;5000772;28;20116;-82
2022/11/04 07:49:26;;;;;;;3.70;1.55;;;9.00;99.90;;;;;;4970254;28;20070;-84
2022/11/04 07:51:52;;;;;;;2.53;1.77;;;9.00;99.90;;;;;;4983816;28;20037;-84
2022/11/04 07:54:17;;;;;;;3.53;1.63;;;9.10;99.90;;;;;;4972866;28;20035;-85
2022/11/04 07:56:43;;;;;;;2.78;1.55;;;9.10;99.90;;;;;;4986111;28;20042;-84
2022/11/04 07:59:09;;;;;;;1.70;1.50;;;9.10;99.90;;;;;;4995275;28;20022;-84
2022/11/04 08:01:35;;;;;;;1.95;1.48;;;9.20;99.90;;;;;;4959109;28;20521;-84
2022/11/04 08:04:01;;;;;;;2.30;1.40;;;9.20;99.90;;;;;;4970883;28;20038;-84
2022/11/04 08:06:29;;;;;;;1.52;1.23;;;9.20;99.90;;;;;;4989443;28;20030;-84
2022/11/04 08:08:57;;;;;;;3.30;1.50;;;9.20;99.90;;;;;;5013001;28;20032;-84
2022/11/04 08:11:27;;;;;;;2.15;1.48;;;9.20;99.90;;;;;;5008021;28;20394;-84
2022/11/04 08:13:54;;;;;;;2.05;1.15;;;9.30;99.90;;;;;;4999484;28;20030;-84
2022/11/04 08:16:22;;;;;;;2.47;1.30;;;9.30;99.90;;;;;;4965928;28;20026;-83
2022/11/04 08:18:50;;;;;;;1.20;1.10;;;9.30;99.90;;;;;;4959555;28;20036;-84
2022/11/04 08:21:16;;;;;;;1.30;1.20;;;9.30;99.90;;;;;;4989741;28;20041;-84
2022/11/04 08:23:43;;;;;;;1.13;1.02;;;9.30;99.90;;;;;;4988591;28;20706;-84
2022/11/04 08:26:15;;;;;;;1.23;1.13;;;9.30;99.90;;;;;;4972723;28;20033;-84
2022/11/04 08:28:41;;;;;;;7.63;1.13;;;9.40;99.90;;;;;;5005172;28;20030;-84
2022/11/04 08:31:16;;;;;;;1.00;0.90;;;9.40;99.90;;;;;;4966171;28;20095;-84
2022/11/04 08:33:42;;;;;;;;;;;9.40;99.90;;;;;;4977605;28;20034;-84
2022/11/04 08:36:29;;;;;;;1.15;1.05;;;9.40;99.90;;;;;;4988860;28;20000;-83
2022/11/04 08:38:56;;;;;;;1.80;1.10;;;9.40;99.90;;;;;;5008243;28;20364;-83
2022/11/04 08:41:30;;;;;;;2.00;0.93;;;9.40;99.90;;;;;;5002919;28;20517;-84
2022/11/04 08:43:59;;;;;;;0.98;0.80;;;9.30;99.90;;;;;;4981147;28;20027;-84
2022/11/04 08:46:28;;;;;;;1.60;0.70;;;9.30;99.90;;;;;;4989578;28;20034;-84
2022/11/04 08:48:54;;;;;;;2.05;1.20;;;9.30;99.90;;;;;;4972334;28;20042;-83
2022/11/04 08:51:24;;;;;;;2.17;1.23;;;9.30;99.90;;;;;;4987682;28;20165;-84
2022/11/04 08:53:49;;;;;;;1.23;0.95;;;9.40;99.90;;;;;;4982917;28;20372;-85
2022/11/04 08:56:17;;;;;;;1.42;0.95;;;9.30;99.90;;;;;;4980981;28;20033;-84
2022/11/04 08:58:43;;;;;;;0.63;0.60;;;9.30;99.90;;;;;;4968259;28;20129;-83
2022/11/04 09:01:10;;;;;;;2.85;1.08;;;9.30;99.90;;;;;;4969829;28;20064;-84
2022/11/04 09:03:37;;;;;;;4.85;0.88;;;9.30;99.90;;;;;;5003000;28;20037;-83
2022/11/04 09:06:05;;;;;;;1.60;0.82;;;9.30;99.90;;;;;;5000671;28;20019;-84
2022/11/04 09:08:31;;;;;;;2.22;0.98;;;9.30;99.90;;;;;;4985000;28;20030;-83
2022/11/04 09:10:56;;;;;;;2.15;0.70;;;9.30;99.90;;;;;;5001112;28;20093;-84
2022/11/04 09:13:22;;;;;;;1.42;0.90;;;9.30;99.90;;;;;;4979833;28;20077;-83
2022/11/04 09:15:48;;;;;;;2.60;1.52;;;9.30;99.90;;;;;;4970669;28;20053;-82
2022/11/04 09:18:14;;;;;;;0.90;0.65;;;9.30;99.90;;;;;;4984617;28;20038;-82
2022/11/04 09:20:41;;;;;;;1.60;0.77;;;9.30;99.90;;;;;;4984780;28;20030;-83
2022/11/04 09:23:07;;;;;;;3.05;0.73;;;9.30;99.90;;;;;;4968248;28;20513;-82
2022/11/04 09:25:34;;;;;;;2.17;0.85;;;9.30;99.90;;;;;;4971062;28;20375;-82
2022/11/04 09:28:00;;;;;;;1.30;0.93;;;9.30;99.90;;;;;;4999669;28;20056;-82
2022/11/04 09:30:26;;;;;;;1.42;1.00;;;9.30;99.90;;;;;;4974696;28;20583;-82
2022/11/04 09:32:52;;;;;;;3.00;1.10;;;9.30;99.90;;;;;;5008089;28;20057;-82
2022/11/04 09:35:18;;;;;;;3.47;1.00;;;9.30;99.90;;;;;;4989444;28;20566;-82
2022/11/04 09:37:45;;;;;;;2.17;1.00;;;9.20;99.90;;;;;;4956158;28;20038;-84
2022/11/04 09:40:16;;;;;;;2.20;1.05;;;9.30;99.90;;;;;;4979783;28;20177;-84
2022/11/04 09:43:23;;;;;;;1.40;1.05;;;9.20;99.90;;;;;;4964176;28;20038;-82
2022/11/04 09:45:48;;;;;;;2.63;0.95;;;9.20;99.90;;;;;;4993555;28;20550;-82
2022/11/04 09:48:27;;;;;;;2.53;1.00;;;9.20;99.90;;;;;;4988301;28;20030;-83
2022/11/04 09:50:59;;;;;;;2.05;0.95;;;9.20;99.90;;;;;;4988194;28;20550;-84
2022/11/04 09:53:25;;;;;;;4.80;1.13;;;9.30;99.90;;;;;;4984195;28;20035;-84
2022/11/04 09:55:59;;;;;;;1.45;0.88;;;9.20;99.90;;;;;;5002365;28;20125;-84
2022/11/04 09:58:26;;;;;;;1.20;1.00;;;9.20;99.90;;;;;;5004693;28;20122;-84
2022/11/04 10:01:16;;;;;;;2.28;1.10;;;9.30;99.90;;;;;;5009908;28;20030;-83
2022/11/04 10:03:56;;;;;;;1.20;0.98;;;9.20;99.90;;;;;;4957139;28;20037;-83
2022/11/04 10:06:29;;;;;;;5.22;0.88;;;9.30;99.90;;;;;;5011276;28;20034;-83
2022/11/04 10:09:09;;;;;;;1.48;0.77;;;9.30;99.90;;;;;;5005507;28;20474;-83
2022/11/04 10:11:45;;;;;;;1.83;1.00;;;9.30;99.90;;;;;;4975379;28;20033;-82
2022/11/04 10:14:30;;;;;;;1.33;0.93;;;9.30;99.90;;;;;;5002624;28;20023;-83
2022/11/04 10:17:49;;;;;;;5.53;1.00;;;9.30;99.90;;;;;;4991728;28;20028;-82
2022/11/04 10:20:33;;;;;;;2.85;0.80;;;9.30;99.90;;;;;;4912338;29;20047;-83
2022/11/04 10:23:13;;;;;;;3.63;0.90;;;9.30;99.90;;;;;;4964602;28;20129;-83
2022/11/04 10:26:08;;;;;;;1.63;0.80;;;9.30;99.90;;;;;;4991269;28;20553;-83
2022/11/04 10:28:40;;;;;;;1.45;0.80;;;9.30;99.90;;;;;;5007162;28;20052;-83
2022/11/04 10:31:09;;;;;;;2.70;0.80;;;9.30;99.90;;;;;;5007284;28;20144;-82
2022/11/04 10:33:40;;;;;;;2.97;0.80;;;9.30;99.90;;;;;;4992675;28;20036;-83
2022/11/04 10:36:08;;;;;;;2.95;0.90;;;9.30;99.90;;;;;;4978294;28;20041;-83
2022/11/04 10:38:38;;;;;;;3.17;1.00;;;9.40;99.90;;;;;;5007022;28;20061;-84
2022/11/04 10:41:28;;;;;;;1.45;0.90;;;9.40;99.90;;;;;;4958760;28;20037;-83
2022/11/04 10:44:07;;;;;;;3.83;0.80;;;9.50;99.90;;;;;;4983394;28;20035;-82
2022/11/04 10:46:50;;;;;;;1.80;0.80;;;9.50;99.90;;;;;;4994604;28;20487;-84
2022/11/04 10:49:53;;;;;;;2.75;0.70;;;9.60;99.90;;;;;;5007938;28;20045;-84
2022/11/04 10:52:19;;;;;;;1.70;0.65;;;9.60;99.90;;;;;;4996829;28;20027;-84
2022/11/04 10:54:47;;;;;;;0.93;0.70;;;9.80;99.90;;;;;;4988570;28;20785;-84
2022/11/04 10:57:31;;;;;;;2.47;0.85;;;9.90;99.90;;;;;;4977296;28;20050;-84
2022/11/04 11:00:00;;;;;;;2.65;1.35;;;10.00;99.90;;;;;;4970178;28;20085;-84
2022/11/04 11:02:35;;;;;;;4.80;0.80;;;10.10;99.90;;;;;;4970288;28;20475;-83
2022/11/04 11:05:24;;;;;;;3.35;1.23;;;10.20;99.90;;;;;;4950792;28;20046;-84
2022/11/04 11:07:56;;;;;;;2.35;0.88;;;10.20;99.90;;;;;;4952132;28;20030;-84
2022/11/04 11:10:25;;;;;;;2.20;0.90;;;10.30;99.90;;;;;;4960138;28;20066;-84
2022/11/04 11:13:26;;;;;;;2.17;0.80;;;10.30;99.90;;;;;;4988855;28;20029;-85
2022/11/04 11:16:17;;;;;;;1.27;0.80;;;10.40;99.90;;;;;;4986864;28;20042;-84
2022/11/04 11:18:43;;;;;;;3.50;1.00;;;10.30;99.90;;;;;;4986395;28;20080;-85
2022/11/04 11:21:17;;;;;;;2.55;1.10;;;10.40;99.90;;;;;;4970326;28;20117;-84
2022/11/04 11:23:48;;;;;;;2.22;0.85;;;10.40;99.90;;;;;;4982962;28;20130;-85
2022/11/04 11:26:34;;;;;;;1.10;0.75;;;10.40;99.90;;;;;;4994735;28;20037;-84
2022/11/04 11:29:01;;;;;;;2.03;0.95;;;10.50;99.90;;;;;;5006059;28;20049;-85
2022/11/04 11:31:36;;;;;;;6.93;1.10;;;10.50;99.90;;;;;;4962807;28;20030;-84
2022/11/04 11:34:06;;;;;;;4.40;0.90;;;10.50;99.90;;;;;;4982459;28;20027;-84
2022/11/04 11:36:37;;;;;;;4.43;1.00;;;10.40;99.90;;;;;;4980740;28;20042;-85
2022/11/04 11:39:18;;;;;;;2.97;0.80;;;10.50;99.90;;;;;;4946476;28;20512;-85
2022/11/04 11:41:58;;;;;;;2.45;0.90;;;10.50;99.90;;;;;;4963199;28;20073;-85
2022/11/04 11:44:30;;;;;;;5.63;1.02;;;10.50;99.90;;;;;;5001965;28;20117;-84
2022/11/04 11:47:00;;;;;;;3.72;1.27;;;10.50;99.90;;;;;;5005462;28;20035;-85
2022/11/04 11:49:35;;;;;;;2.28;0.90;;;10.50;99.90;;;;;;4983476;28;20494;-84
2022/11/04 11:52:39;;;;;;;1.65;0.80;;;10.50;99.90;;;;;;4990705;28;20721;-84
2022/11/04 11:55:12;;;;;;;1.65;0.70;;;10.50;99.90;;;;;;4981929;28;20129;-85
2022/11/04 11:57:59;;;;;;;1.95;1.10;;;10.50;99.90;;;;;;4984966;28;20038;-85
2022/11/04 12:00:31;;;;;;;1.85;1.00;;;10.60;99.90;;;;;;4971941;28;20061;-84
2022/11/04 12:03:12;;;;;;;3.50;0.90;;;10.60;99.90;;;;;;4957855;28;20141;-84
2022/11/04 12:05:53;;;;;;;2.38;0.82;;;10.70;99.90;;;;;;5021506;28;20032;-83
2022/11/04 12:08:50;;;;;;;2.95;1.00;;;10.70;99.90;;;;;;5008771;28;20601;-86
2022/11/04 12:11:38;;;;;;;2.40;0.75;;;10.70;99.90;;;;;;4982931;28;20096;-84
2022/11/04 12:14:17;;;;;;;;;;;10.70;99.90;;;;;;5099976;27;20901;-83
2022/11/04 12:16:59;;;;;;;1.60;0.80;;;10.80;99.90;;;;;;5071664;28;19908;-83
2022/11/04 12:20:02;;;;;;;2.08;1.10;;;10.70;99.90;;;;;;5101415;28;20030;-83
2022/11/04 12:23:02;;;;;;;1.63;0.80;;;10.70;99.90;;;;;;5082473;28;20032;-84
2022/11/04 12:25:53;;;;;;;3.50;0.80;;;10.70;99.90;;;;;;5086680;28;20036;-85
2022/11/04 12:28:41;;;;;;;6.10;1.17;;;10.80;99.90;;;;;;5083605;28;20028;-83
2022/11/04 12:31:18;;;;;;;2.05;1.20;;;10.80;99.90;;;;;;5076054;28;20500;-84
2022/11/04 12:33:53;;;;;;;4.03;1.20;;;10.80;99.90;;;;;;5071848;28;20484;-84
2022/11/04 12:36:51;;;;;;;2.97;0.90;;;10.80;99.90;;;;;;5087944;28;20396;-83
2022/11/04 12:39:28;;;;;;;2.70;0.98;;;10.80;99.90;;;;;;5074437;28;20195;-83
2022/11/04 12:41:59;;;;;;;2.50;0.98;;;10.80;99.90;;;;;;5112784;28;20057;-82
2022/11/04 12:44:45;;;;;;;5.07;0.90;;;10.80;99.90;;;;;;5097182;28;20110;-84
2022/11/04 12:47:33;;;;;;;3.67;1.00;;;10.90;99.90;;;;;;5081630;28;20040;-83
2022/11/04 12:50:14;;;;;;;2.85;1.02;;;10.90;99.90;;;;;;5077582;28;20606;-84
2022/11/04 12:52:59;;;;;;;2.42;1.02;;;10.90;99.90;;;;;;5099134;28;20052;-83
2022/11/04 12:55:46;;;;;;;4.75;1.55;;;10.80;99.90;;;;;;5104145;28;21040;-84
2022/11/04 12:58:40;;;;;;;4.45;1.20;;;10.80;99.90;;;;;;5088805;28;20107;-82
2022/11/04 13:01:23;;;;;;;4.70;1.23;;;10.80;99.90;;;;;;5083442;28;20400;-83
2022/11/04 13:04:00;;;;;;;2.67;1.23;;;10.90;99.90;;;;;;5099752;28;20499;-84
2022/11/04 13:06:28;;;;;;;1.60;1.00;;;10.80;99.90;;;;;;5102185;28;20032;-82
2022/11/04 13:09:12;;;;;;;1.55;0.95;;;10.90;99.90;;;;;;5085133;28;20043;-81
2022/11/04 13:11:53;;;;;;;1.67;1.20;;;10.80;99.90;;;;;;5103813;28;20035;-83
2022/11/04 13:14:32;;;;;;;2.28;1.40;;;10.80;99.90;;;;;;5085072;28;20059;-82
2022/11/04 13:17:06;;;;;;;5.22;0.95;;;10.80;99.90;;;;;;5083804;28;20031;-81
2022/11/04 13:19:39;;;;;;;5.97;1.27;;;10.80;99.90;;;;;;5110374;28;20016;-81
2022/11/04 13:22:11;;;;;;;2.90;1.00;;;10.80;99.90;;;;;;5101962;28;20051;-83
2022/11/04 13:24:39;;;;;;;5.28;1.50;;;10.80;99.90;;;;;;5095985;28;20115;-84
2022/11/04 13:27:26;;;;;;;3.03;1.33;;;10.80;99.90;;;;;;5077021;28;20035;-84
2022/11/04 13:30:21;;;;;;;2.83;1.27;;;10.70;99.90;;;;;;5058174;28;20434;-84
2022/11/04 13:33:03;;;;;;;3.80;1.30;;;10.60;99.90;;;;;;5092690;28;20036;-82
2022/11/04 13:35:42;;;;;;;3.08;1.40;;;10.60;99.90;;;;;;5084587;28;20047;-82
2022/11/04 13:38:13;;;;;;;3.47;1.10;;;10.50;99.90;;;;;;5080307;28;20024;-82
2022/11/04 13:41:01;;;;;;;3.40;1.33;;;10.50;99.90;;;;;;5074354;28;20056;-82
2022/11/04 13:43:37;;;;;;;3.42;1.00;;;10.50;99.90;;;;;;5069931;28;20040;-81
2022/11/04 13:46:27;;;;;;;2.47;0.88;;;10.40;99.90;;;;;;5084762;28;20036;-81
2022/11/04 13:49:33;;;;;;;4.32;1.05;;;10.30;99.90;;;;;;5092381;28;20044;-80
2022/11/04 13:52:07;;;;;;;1.90;0.80;;;10.30;99.90;;;;;;5052149;28;20151;-81
2022/11/04 13:55:16;;;;;;;3.13;1.00;;;10.20;99.90;;;;;;5085284;28;20040;-81